createdAt,value
2023-12-16T00:02:18.520Z,70.57
2023-12-16T00:04:42.094Z,70.50
2023-12-16T00:07:04.380Z,70.52
2023-12-16T00:09:26.177Z,70.77
2023-12-16T00:11:47.992Z,70.58
2023-12-16T00:14:10.676Z,70.72
2023-12-16T00:16:32.499Z,70.48
2023-12-16T00:18:54.779Z,70.55
2023-12-16T00:21:17.530Z,70.76
2023-12-16T00:23:39.312Z,70.70
2023-12-16T00:26:01.130Z,70.59
2023-12-16T00:28:22.955Z,70.61
2023-12-16T00:30:44.721Z,70.40
2023-12-16T00:33:07.386Z,70.38
2023-12-16T00:35:29.118Z,70.45
2023-12-16T00:37:51.167Z,70.34
2023-12-16T00:40:13.624Z,70.42
2023-12-16T00:42:35.340Z,70.61
2023-12-16T00:44:58.038Z,70.28
2023-12-16T00:47:19.702Z,70.41
2023-12-16T00:49:41.603Z,70.29
2023-12-16T00:52:04.454Z,70.23
2023-12-16T00:54:27.674Z,70.44
2023-12-16T00:56:50.861Z,69.97
2023-12-16T00:59:12.597Z,70.14
2023-12-16T01:01:34.432Z,70.32
2023-12-16T01:03:56.418Z,70.33
2023-12-16T01:06:18.222Z,70.57
2023-12-16T01:08:40.047Z,70.36
2023-12-16T01:11:02.867Z,70.50
2023-12-16T01:13:24.708Z,70.05
2023-12-16T01:15:46.538Z,70.20
2023-12-16T01:18:09.226Z,70.17
2023-12-16T01:20:31.005Z,70.00
2023-12-16T01:22:52.685Z,70.07
2023-12-16T01:25:14.437Z,70.23
2023-12-16T01:27:36.380Z,70.34
2023-12-16T01:29:58.263Z,69.66
2023-12-16T01:32:20.042Z,69.99
2023-12-16T01:34:42.185Z,69.69
2023-12-16T01:37:04.407Z,69.76
2023-12-16T01:39:26.228Z,69.94
2023-12-16T01:41:47.899Z,69.96
2023-12-16T01:44:09.586Z,69.80
2023-12-16T01:46:36.301Z,69.61
2023-12-16T01:48:58.194Z,69.77
2023-12-16T01:51:20.553Z,69.79
2023-12-16T01:53:44.323Z,69.50
2023-12-16T01:56:09.057Z,69.83
2023-12-16T01:58:31.516Z,69.95
2023-12-16T02:00:56.574Z,69.77
2023-12-16T02:03:20.657Z,69.65
2023-12-16T02:05:42.945Z,69.51
2023-12-16T02:08:05.070Z,69.61
2023-12-16T02:10:26.977Z,69.30
2023-12-16T02:12:48.887Z,69.23
2023-12-16T02:15:10.866Z,69.21
2023-12-16T02:17:32.685Z,69.32
2023-12-16T02:19:55.511Z,69.18
2023-12-16T02:22:17.304Z,69.40
2023-12-16T02:24:41.458Z,69.36
2023-12-16T02:27:03.440Z,69.05
2023-12-16T02:29:25.207Z,69.39
2023-12-16T02:31:46.948Z,68.89
2023-12-16T02:34:09.777Z,69.51
2023-12-16T02:36:31.589Z,69.31
2023-12-16T02:38:53.315Z,69.54
2023-12-16T02:41:15.262Z,69.61
2023-12-16T02:43:37.008Z,69.33
2023-12-16T02:45:58.685Z,69.32
2023-12-16T02:48:20.529Z,69.32
2023-12-16T02:50:42.345Z,69.23
2023-12-16T02:53:04.209Z,69.18
2023-12-16T02:55:26.108Z,69.20
2023-12-16T02:57:47.940Z,69.59
2023-12-16T03:00:10.452Z,69.43
2023-12-16T03:02:32.149Z,69.65
2023-12-16T03:04:53.933Z,69.52
2023-12-16T03:07:15.706Z,69.68
2023-12-16T03:09:37.440Z,69.41
2023-12-16T03:12:01.730Z,69.76
2023-12-16T03:14:23.514Z,69.80
2023-12-16T03:16:45.480Z,70.05
2023-12-16T03:19:07.261Z,70.32
2023-12-16T03:21:30.904Z,69.97
2023-12-16T03:23:52.631Z,70.13
2023-12-16T03:26:14.353Z,70.34
2023-12-16T03:28:36.153Z,70.20
2023-12-16T03:30:57.988Z,70.26
2023-12-16T03:33:19.823Z,70.68
2023-12-16T03:35:41.745Z,70.32
2023-12-16T03:38:04.584Z,70.48
2023-12-16T03:40:26.407Z,70.51
2023-12-16T03:42:48.256Z,71.02
2023-12-16T03:45:10.551Z,71.13
2023-12-16T03:47:33.601Z,71.05
2023-12-16T03:49:55.422Z,70.89
2023-12-16T03:52:17.213Z,70.84
2023-12-16T03:54:39.377Z,70.96
2023-12-16T03:57:01.125Z,71.02
2023-12-16T03:59:22.966Z,71.47
2023-12-16T04:01:46.471Z,71.02
2023-12-16T04:04:08.712Z,71.09
2023-12-16T04:06:32.386Z,71.63
2023-12-16T04:08:54.781Z,71.28
2023-12-16T04:11:16.703Z,71.81
2023-12-16T04:13:38.418Z,71.83
2023-12-16T04:16:00.224Z,71.71
2023-12-16T04:18:22.768Z,71.18
2023-12-16T04:20:44.599Z,71.28
2023-12-16T04:23:06.383Z,71.52
2023-12-16T04:25:28.091Z,71.72
2023-12-16T04:27:49.853Z,71.43
2023-12-16T04:30:12.397Z,71.61
2023-12-16T04:32:34.499Z,71.65
2023-12-16T04:34:56.378Z,71.77
2023-12-16T04:37:18.116Z,71.95
2023-12-16T04:39:39.831Z,72.10
2023-12-16T04:42:01.597Z,71.80
2023-12-16T04:44:23.322Z,71.89
2023-12-16T04:46:45.024Z,71.57
2023-12-16T04:49:06.873Z,72.08
2023-12-16T04:51:29.096Z,72.05
2023-12-16T04:53:50.850Z,72.17
2023-12-16T04:56:12.678Z,72.29
2023-12-16T04:58:35.753Z,72.15
2023-12-16T05:00:58.694Z,72.39
2023-12-16T05:03:20.545Z,71.83
2023-12-16T05:05:42.323Z,71.77
2023-12-16T05:08:04.333Z,71.97
2023-12-16T05:10:26.289Z,72.14
2023-12-16T05:12:48.202Z,71.99
2023-12-16T05:15:10.721Z,72.24
2023-12-16T05:17:33.012Z,72.13
2023-12-16T05:19:55.355Z,72.28
2023-12-16T05:22:17.156Z,72.15
2023-12-16T05:24:38.899Z,72.30
2023-12-16T05:27:00.585Z,72.23
2023-12-16T05:29:22.370Z,72.29
2023-12-16T05:31:44.125Z,72.44
2023-12-16T05:34:05.928Z,72.46
2023-12-16T05:36:27.736Z,72.21
2023-12-16T05:38:50.542Z,72.47
2023-12-16T05:41:15.802Z,72.85
2023-12-16T05:43:37.579Z,72.90
2023-12-16T05:45:59.963Z,72.89
2023-12-16T05:48:22.173Z,73.35
2023-12-16T05:50:43.970Z,73.06
2023-12-16T05:53:07.290Z,73.06
2023-12-16T05:55:29.470Z,73.44
2023-12-16T05:57:51.300Z,73.89
2023-12-16T06:00:13.721Z,73.36
2023-12-16T06:02:35.530Z,73.81
2023-12-16T06:04:57.321Z,73.99
2023-12-16T06:07:20.818Z,74.12
2023-12-16T06:09:42.599Z,73.95
2023-12-16T06:12:04.999Z,74.23
2023-12-16T06:14:26.678Z,74.45
2023-12-16T06:16:48.483Z,74.65
2023-12-16T06:19:10.360Z,74.96
2023-12-16T06:21:32.201Z,74.74
2023-12-16T06:23:53.954Z,75.08
2023-12-16T06:26:15.768Z,75.51
2023-12-16T06:28:37.749Z,75.31
2023-12-16T06:30:59.689Z,75.39
2023-12-16T06:33:23.503Z,75.90
2023-12-16T06:35:45.411Z,75.65
2023-12-16T06:38:07.073Z,75.30
2023-12-16T06:40:28.846Z,75.82
2023-12-16T06:42:50.657Z,75.80
2023-12-16T06:45:12.431Z,75.84
2023-12-16T06:47:34.331Z,76.10
2023-12-16T06:49:56.122Z,75.68
2023-12-16T06:52:17.924Z,75.53
2023-12-16T06:54:39.664Z,75.61
2023-12-16T06:57:01.376Z,76.05
2023-12-16T06:59:23.048Z,75.70
2023-12-16T07:01:44.895Z,75.72
2023-12-16T07:04:06.708Z,75.74
2023-12-16T07:06:28.453Z,75.80
2023-12-16T07:08:50.203Z,75.59
2023-12-16T07:11:15.981Z,75.40
2023-12-16T07:13:37.728Z,75.90
2023-12-16T07:15:59.468Z,75.37
2023-12-16T07:18:21.533Z,75.86
2023-12-16T07:20:43.339Z,75.56
2023-12-16T07:23:05.924Z,75.60
2023-12-16T07:25:27.855Z,75.82
2023-12-16T07:27:49.761Z,75.41
2023-12-16T07:30:12.952Z,75.94
2023-12-16T07:32:34.838Z,75.49
2023-12-16T07:34:57.418Z,75.97
2023-12-16T07:37:22.341Z,75.88
2023-12-16T07:39:44.245Z,75.71
2023-12-16T07:42:06.089Z,75.70
2023-12-16T07:44:29.869Z,75.87
2023-12-16T07:46:51.636Z,76.27
2023-12-16T07:49:13.633Z,75.71
2023-12-16T07:51:37.228Z,76.23
2023-12-16T07:54:00.756Z,76.30
2023-12-16T07:56:27.522Z,76.23
2023-12-16T07:58:52.396Z,75.73
2023-12-16T08:01:15.695Z,76.44
2023-12-16T08:03:37.466Z,76.19
2023-12-16T08:05:59.283Z,76.24
2023-12-16T08:08:21.016Z,76.05
2023-12-16T08:10:42.829Z,75.81
2023-12-16T08:13:04.768Z,76.01
2023-12-16T08:15:26.507Z,76.06
2023-12-16T08:17:48.646Z,76.15
2023-12-16T08:20:11.178Z,76.02
2023-12-16T08:22:34.424Z,76.09
2023-12-16T08:24:56.180Z,76.27
2023-12-16T08:27:17.911Z,76.19
2023-12-16T08:29:39.724Z,75.95
2023-12-16T08:32:01.408Z,76.16
2023-12-16T08:34:23.825Z,75.93
2023-12-16T08:36:45.788Z,75.95
2023-12-16T08:39:07.486Z,75.97
2023-12-16T08:41:29.177Z,75.84
2023-12-16T08:43:50.902Z,76.10
2023-12-16T08:46:13.327Z,75.48
2023-12-16T08:48:36.903Z,75.69
2023-12-16T08:50:59.007Z,75.58
2023-12-16T08:53:21.269Z,75.08
2023-12-16T08:55:43.669Z,75.20
2023-12-16T08:58:05.564Z,75.25
2023-12-16T09:00:27.483Z,75.20
2023-12-16T09:02:49.294Z,75.10
2023-12-16T09:05:10.996Z,75.09
2023-12-16T09:07:32.822Z,75.34
2023-12-16T09:09:54.722Z,75.18
2023-12-16T09:12:16.606Z,75.02
2023-12-16T09:14:39.393Z,75.12
2023-12-16T09:17:01.432Z,75.20
2023-12-16T09:19:23.658Z,74.71
2023-12-16T09:21:45.447Z,74.94
2023-12-16T09:24:07.320Z,74.69
2023-12-16T09:26:29.026Z,74.79
2023-12-16T09:28:51.361Z,74.59
2023-12-16T09:31:13.307Z,74.83
2023-12-16T09:33:35.152Z,75.16
2023-12-16T09:35:56.898Z,74.74
2023-12-16T09:38:18.679Z,74.49
2023-12-16T09:40:42.422Z,74.87
2023-12-16T09:43:20.082Z,74.82
2023-12-16T09:45:45.839Z,74.76
2023-12-16T09:48:07.770Z,74.89
2023-12-16T09:50:31.935Z,75.24
2023-12-16T09:52:53.809Z,75.11
2023-12-16T09:55:16.238Z,75.15
2023-12-16T09:57:42.111Z,75.21
2023-12-16T10:00:05.318Z,74.96
2023-12-16T10:02:29.969Z,74.99
2023-12-16T10:04:53.518Z,75.28
2023-12-16T10:07:15.358Z,75.12
2023-12-16T10:09:37.051Z,75.19
2023-12-16T10:12:00.599Z,74.95
2023-12-16T10:14:22.430Z,75.04
2023-12-16T10:16:48.427Z,75.45
2023-12-16T10:19:10.309Z,75.33
2023-12-16T10:21:33.792Z,75.45
2023-12-16T10:24:01.550Z,75.77
2023-12-16T10:26:23.387Z,75.78
2023-12-16T10:28:49.132Z,75.90
2023-12-16T10:31:10.885Z,75.96
2023-12-16T10:33:32.918Z,75.88
2023-12-16T10:35:54.724Z,76.18
2023-12-16T10:38:16.524Z,76.40
2023-12-16T10:40:39.010Z,76.49
2023-12-16T10:43:00.943Z,76.67
2023-12-16T10:45:22.889Z,76.98
2023-12-16T10:47:51.716Z,77.17
2023-12-16T10:50:17.051Z,77.01
2023-12-16T10:52:54.252Z,77.10
2023-12-16T10:55:45.032Z,77.83
2023-12-16T10:58:25.283Z,77.72
2023-12-16T11:00:52.672Z,77.88
2023-12-16T11:03:42.987Z,78.07
2023-12-16T11:06:13.635Z,77.85
2023-12-16T11:08:37.364Z,78.03
2023-12-16T11:10:59.762Z,78.02
2023-12-16T11:13:23.389Z,78.17
2023-12-16T11:15:50.542Z,77.93
2023-12-16T11:18:22.422Z,77.68
2023-12-16T11:21:02.422Z,77.73
2023-12-16T11:23:24.596Z,77.75
2023-12-16T11:25:49.069Z,78.24
2023-12-16T11:28:14.528Z,78.02
2023-12-16T11:30:36.733Z,78.35
2023-12-16T11:32:58.901Z,78.38
2023-12-16T11:35:49.131Z,78.31
2023-12-16T11:38:10.874Z,78.66
2023-12-16T11:40:44.136Z,78.56
2023-12-16T11:43:06.143Z,78.75
2023-12-16T11:45:44.817Z,78.60
2023-12-16T11:48:11.117Z,79.11
2023-12-16T11:50:35.508Z,79.21
2023-12-16T11:52:57.342Z,79.02
2023-12-16T11:55:20.355Z,79.37
2023-12-16T11:57:43.493Z,79.42
2023-12-16T12:00:06.274Z,79.64
2023-12-16T12:02:28.751Z,79.68
2023-12-16T12:04:50.944Z,79.73
2023-12-16T12:07:14.986Z,79.54
2023-12-16T12:09:37.039Z,79.75
2023-12-16T12:11:58.812Z,80.05
2023-12-16T12:14:20.494Z,79.74
2023-12-16T12:16:42.584Z,80.08
2023-12-16T12:19:04.750Z,80.15
2023-12-16T12:21:27.849Z,80.33
2023-12-16T12:23:49.641Z,80.46
2023-12-16T12:26:12.346Z,80.45
2023-12-16T12:28:34.485Z,80.67
2023-12-16T12:31:07.890Z,81.16
2023-12-16T12:33:31.266Z,81.25
2023-12-16T12:35:53.083Z,81.32
2023-12-16T12:38:20.546Z,81.70
2023-12-16T12:40:42.238Z,81.60
2023-12-16T12:43:04.042Z,81.47
2023-12-16T12:45:34.965Z,81.89
2023-12-16T12:48:18.592Z,82.08
2023-12-16T12:50:42.768Z,82.17
2023-12-16T12:53:24.515Z,82.19
2023-12-16T12:55:51.491Z,82.62
2023-12-16T12:58:20.099Z,82.90
2023-12-16T13:00:53.608Z,83.34
2023-12-16T13:03:15.623Z,83.25
2023-12-16T13:05:39.001Z,83.40
2023-12-16T13:08:00.846Z,83.59
2023-12-16T13:10:23.001Z,83.49
2023-12-16T13:12:44.687Z,83.74
2023-12-16T13:15:07.349Z,83.80
2023-12-16T13:17:29.288Z,84.11
2023-12-16T13:19:51.161Z,84.17
2023-12-16T13:22:12.963Z,84.36
2023-12-16T13:24:34.823Z,84.48
2023-12-16T13:26:56.529Z,84.32
2023-12-16T13:29:19.988Z,84.58
2023-12-16T13:31:41.774Z,84.53
2023-12-16T13:34:03.685Z,84.80
2023-12-16T13:36:34.416Z,84.57
2023-12-16T13:39:09.604Z,85.05
2023-12-16T13:41:31.832Z,85.02
2023-12-16T13:43:54.264Z,85.35
2023-12-16T13:46:16.086Z,85.40
2023-12-16T13:48:37.936Z,85.30
2023-12-16T13:50:59.696Z,85.58
2023-12-16T13:53:21.496Z,85.39
2023-12-16T13:55:43.392Z,85.69
2023-12-16T13:58:05.647Z,85.60
2023-12-16T14:00:27.422Z,85.82
2023-12-16T14:02:49.146Z,85.98
2023-12-16T14:05:11.146Z,85.97
2023-12-16T14:07:34.085Z,85.48
2023-12-16T14:09:57.417Z,85.67
2023-12-16T14:12:19.124Z,85.67
2023-12-16T14:14:40.871Z,85.32
2023-12-16T14:17:02.663Z,85.67
2023-12-16T14:19:24.671Z,85.79
2023-12-16T14:21:46.631Z,85.74
2023-12-16T14:24:08.813Z,85.67
2023-12-16T14:26:31.386Z,85.73
2023-12-16T14:28:54.111Z,85.94
2023-12-16T14:31:15.911Z,85.91
2023-12-16T14:33:37.970Z,85.41
2023-12-16T14:36:00.068Z,85.39
2023-12-16T14:38:21.808Z,85.32
2023-12-16T14:40:43.688Z,85.37
2023-12-16T14:43:05.351Z,85.60
2023-12-16T14:45:27.167Z,85.65
2023-12-16T14:47:49.015Z,85.84
2023-12-16T14:50:10.806Z,86.12
2023-12-16T14:52:32.561Z,86.03
2023-12-16T14:54:54.264Z,86.47
2023-12-16T14:57:16.043Z,86.44
2023-12-16T14:59:37.801Z,86.38
2023-12-16T15:01:59.722Z,86.04
2023-12-16T15:04:21.457Z,86.25
2023-12-16T15:06:43.278Z,86.02
2023-12-16T15:09:05.075Z,86.12
2023-12-16T15:11:27.557Z,86.47
2023-12-16T15:13:49.904Z,86.44
2023-12-16T15:16:12.046Z,86.65
2023-12-16T15:18:34.968Z,86.52
2023-12-16T15:20:56.800Z,86.90
2023-12-16T15:23:18.682Z,86.74
2023-12-16T15:25:40.332Z,87.12
2023-12-16T15:28:02.052Z,87.49
2023-12-16T15:30:23.922Z,87.66
2023-12-16T15:32:45.751Z,87.41
2023-12-16T15:35:07.658Z,87.53
2023-12-16T15:37:29.411Z,87.69
2023-12-16T15:39:51.107Z,87.72
2023-12-16T15:42:13.085Z,87.92
2023-12-16T15:44:36.217Z,88.04
2023-12-16T15:46:58.187Z,87.80
2023-12-16T15:49:24.515Z,88.52
2023-12-16T15:51:46.565Z,88.22
2023-12-16T15:54:08.540Z,88.13
2023-12-16T15:56:31.745Z,88.24
2023-12-16T15:58:53.465Z,88.37
2023-12-16T16:01:15.295Z,88.59
2023-12-16T16:03:37.062Z,88.57
2023-12-16T16:05:58.900Z,88.62
2023-12-16T16:08:20.705Z,88.88
2023-12-16T16:10:44.264Z,88.78
2023-12-16T16:13:10.351Z,88.81
2023-12-16T16:15:32.093Z,88.81
2023-12-16T16:17:53.967Z,89.11
2023-12-16T16:20:16.037Z,89.02
2023-12-16T16:22:37.803Z,88.82
2023-12-16T16:24:59.652Z,89.20
2023-12-16T16:27:21.408Z,89.02
2023-12-16T16:29:44.989Z,88.69
2023-12-16T16:32:10.333Z,88.61
2023-12-16T16:34:32.619Z,88.70
2023-12-16T16:36:54.442Z,88.49
2023-12-16T16:39:16.168Z,88.56
2023-12-16T16:41:37.953Z,88.54
2023-12-16T16:44:00.644Z,88.59
2023-12-16T16:46:23.422Z,88.48
2023-12-16T16:48:45.308Z,88.73
2023-12-16T16:51:07.402Z,89.29
2023-12-16T16:53:29.326Z,89.39
2023-12-16T16:55:51.745Z,89.41
2023-12-16T16:58:13.632Z,89.83
2023-12-16T17:00:36.598Z,89.47
2023-12-16T17:02:58.386Z,89.70
2023-12-16T17:05:20.992Z,90.27
2023-12-16T17:07:44.190Z,90.14
2023-12-16T17:10:06.690Z,90.07
2023-12-16T17:12:28.737Z,89.91
2023-12-16T17:14:50.462Z,90.14
2023-12-16T17:17:13.064Z,89.84
2023-12-16T17:19:34.878Z,90.25
2023-12-16T17:21:56.570Z,90.33
2023-12-16T17:24:19.953Z,90.20
2023-12-16T17:26:44.167Z,90.22
2023-12-16T17:29:05.975Z,89.98
2023-12-16T17:31:27.721Z,90.20
2023-12-16T17:33:49.699Z,90.13
2023-12-16T17:36:11.568Z,90.17
2023-12-16T17:38:33.421Z,90.27
2023-12-16T17:40:55.606Z,90.23
2023-12-16T17:43:17.357Z,90.45
2023-12-16T17:45:39.038Z,90.56
2023-12-16T17:48:01.312Z,90.85
2023-12-16T17:50:23.932Z,90.61
2023-12-16T17:52:45.814Z,90.38
2023-12-16T17:55:12.139Z,90.56
2023-12-16T17:57:33.965Z,90.83
2023-12-16T17:59:55.670Z,90.67
2023-12-16T18:02:17.427Z,90.69
2023-12-16T18:04:39.135Z,91.06
2023-12-16T18:07:00.829Z,91.07
2023-12-16T18:09:22.748Z,91.16
2023-12-16T18:11:44.663Z,91.04
2023-12-16T18:14:06.734Z,90.93
2023-12-16T18:16:28.488Z,90.99
2023-12-16T18:18:50.453Z,90.69
2023-12-16T18:21:12.897Z,90.51
2023-12-16T18:23:34.763Z,90.55
2023-12-16T18:26:01.347Z,90.51
2023-12-16T18:28:23.543Z,90.33
2023-12-16T18:30:45.295Z,90.22
2023-12-16T18:33:09.718Z,90.60
2023-12-16T18:35:37.219Z,90.59
2023-12-16T18:37:58.989Z,90.13
2023-12-16T18:40:27.113Z,90.33
2023-12-16T18:42:53.841Z,90.34
2023-12-16T18:45:15.680Z,90.54
2023-12-16T18:47:37.988Z,91.07
2023-12-16T18:50:00.683Z,90.87
2023-12-16T18:52:22.540Z,90.96
2023-12-16T18:54:44.312Z,91.18
2023-12-16T18:57:06.179Z,90.97
2023-12-16T18:59:28.852Z,91.09
2023-12-16T19:01:50.732Z,91.06
2023-12-16T19:04:12.749Z,91.03
2023-12-16T19:06:34.749Z,90.76
2023-12-16T19:08:56.521Z,91.07
2023-12-16T19:11:18.460Z,91.04
2023-12-16T19:13:40.386Z,91.02
2023-12-16T19:16:02.222Z,91.20
2023-12-16T19:18:24.615Z,91.02
2023-12-16T19:20:46.809Z,90.94
2023-12-16T19:23:08.648Z,90.57
2023-12-16T19:25:30.377Z,90.45
2023-12-16T19:27:52.265Z,90.89
2023-12-16T19:30:14.450Z,90.62
2023-12-16T19:32:36.874Z,90.70
2023-12-16T19:34:59.908Z,90.48
2023-12-16T19:37:21.749Z,90.80
2023-12-16T19:39:43.584Z,90.51
2023-12-16T19:42:07.053Z,90.24
2023-12-16T19:44:30.213Z,90.16
2023-12-16T19:46:52.722Z,90.03
2023-12-16T19:49:14.993Z,90.09
2023-12-16T19:51:37.138Z,90.32
2023-12-16T19:53:58.948Z,90.45
2023-12-16T19:56:21.024Z,90.36
2023-12-16T19:58:43.757Z,90.23
2023-12-16T20:01:05.705Z,90.48
2023-12-16T20:03:27.595Z,90.88
2023-12-16T20:05:49.440Z,90.63
2023-12-16T20:08:12.114Z,90.95
2023-12-16T20:10:33.920Z,90.79
2023-12-16T20:12:55.788Z,91.06
2023-12-16T20:15:18.022Z,91.11
2023-12-16T20:17:43.355Z,90.73
2023-12-16T20:20:09.066Z,91.43
2023-12-16T20:22:30.859Z,91.35
2023-12-16T20:24:53.701Z,91.38
2023-12-16T20:27:15.594Z,91.44
2023-12-16T20:29:37.621Z,91.31
2023-12-16T20:31:59.427Z,91.39
2023-12-16T20:34:21.743Z,91.26
2023-12-16T20:36:43.577Z,91.42
2023-12-16T20:39:23.883Z,91.03
2023-12-16T20:41:45.754Z,91.02
2023-12-16T20:44:07.726Z,91.41
2023-12-16T20:46:29.743Z,91.43
2023-12-16T20:48:52.059Z,91.38
2023-12-16T20:51:14.070Z,91.48
2023-12-16T20:53:36.067Z,91.54
2023-12-16T20:55:58.163Z,91.92
2023-12-16T20:58:20.149Z,91.60
2023-12-16T21:00:42.174Z,91.73
2023-12-16T21:03:04.130Z,91.81
2023-12-16T21:05:26.130Z,91.85
2023-12-16T21:07:48.086Z,91.85
2023-12-16T21:10:10.938Z,92.01
2023-12-16T21:12:33.532Z,92.03
2023-12-16T21:14:55.384Z,91.76
2023-12-16T21:17:19.397Z,91.67
2023-12-16T21:19:41.298Z,92.10
2023-12-16T21:22:03.246Z,91.90
2023-12-16T21:24:25.779Z,91.64
2023-12-16T21:26:47.775Z,91.88
2023-12-16T21:29:09.789Z,92.52
2023-12-16T21:31:31.535Z,92.10
2023-12-16T21:33:54.799Z,92.33
2023-12-16T21:36:18.117Z,92.42
2023-12-16T21:38:41.421Z,92.13
2023-12-16T21:41:03.381Z,92.14
2023-12-16T21:43:26.681Z,91.93
2023-12-16T21:45:49.750Z,92.27
2023-12-16T21:48:13.585Z,92.40
2023-12-16T21:50:36.025Z,92.50
2023-12-16T21:52:57.995Z,92.44
2023-12-16T21:55:19.838Z,92.70
2023-12-16T21:57:41.940Z,92.43
2023-12-16T22:00:04.946Z,92.42
2023-12-16T22:02:27.882Z,92.42
2023-12-16T22:04:49.685Z,92.57
2023-12-16T22:07:11.632Z,92.63
2023-12-16T22:09:34.715Z,92.46
2023-12-16T22:11:56.567Z,92.49
2023-12-16T22:14:19.309Z,92.86
2023-12-16T22:16:41.059Z,93.00
2023-12-16T22:19:03.237Z,93.13
2023-12-16T22:21:25.122Z,93.22
2023-12-16T22:23:46.971Z,93.16
2023-12-16T22:26:09.002Z,93.25
2023-12-16T22:28:30.906Z,93.65
2023-12-16T22:30:54.117Z,93.51
2023-12-16T22:33:16.082Z,93.71
2023-12-16T22:35:38.859Z,93.68
2023-12-16T22:38:01.597Z,93.82
2023-12-16T22:40:24.057Z,93.33
2023-12-16T22:42:46.620Z,93.28
2023-12-16T22:45:11.356Z,93.50
2023-12-16T22:47:33.449Z,93.50
2023-12-16T22:49:55.598Z,93.56
2023-12-16T22:52:17.766Z,93.52
2023-12-16T22:54:39.878Z,93.74
2023-12-16T22:57:02.782Z,93.36
2023-12-16T22:59:24.524Z,93.52
2023-12-16T23:01:46.744Z,93.29
2023-12-16T23:04:08.611Z,93.42
2023-12-16T23:06:30.387Z,93.59
2023-12-16T23:08:52.987Z,93.67
2023-12-16T23:11:14.841Z,93.65
2023-12-16T23:13:36.651Z,93.79
2023-12-16T23:15:58.489Z,93.54
2023-12-16T23:18:20.277Z,93.60
2023-12-16T23:20:42.130Z,93.75
2023-12-16T23:23:03.965Z,93.69
2023-12-16T23:25:25.767Z,94.01
2023-12-16T23:27:47.593Z,93.73
2023-12-16T23:30:11.357Z,93.88
2023-12-16T23:32:33.320Z,94.26
2023-12-16T23:34:55.169Z,94.30
2023-12-16T23:37:16.958Z,94.24
2023-12-16T23:39:38.706Z,94.37
2023-12-16T23:42:00.541Z,94.45
2023-12-16T23:44:23.412Z,94.53
2023-12-16T23:46:47.371Z,94.30
2023-12-16T23:49:09.259Z,94.35
2023-12-16T23:51:31.096Z,93.87
2023-12-16T23:53:52.888Z,94.08
2023-12-16T23:56:16.963Z,94.15
2023-12-16T23:58:38.881Z,94.30
